createdAt,value
2016-02-27T00:00:11.902Z,0
2016-02-27T00:01:11.890Z,0
2016-02-27T00:02:11.891Z,0
2016-02-27T00:03:11.879Z,0
2016-02-27T00:04:11.914Z,0
2016-02-27T00:05:11.760Z,0
2016-02-27T00:06:11.887Z,0
2016-02-27T00:07:11.890Z,0
2016-02-27T00:08:11.893Z,0
2016-02-27T00:09:11.896Z,0
2016-02-27T00:10:11.913Z,0
2016-02-27T00:11:11.901Z,0
2016-02-27T00:12:11.918Z,0
2016-02-27T00:13:11.875Z,0
2016-02-27T00:14:11.893Z,0
2016-02-27T00:15:11.881Z,0
2016-02-27T00:16:11.883Z,0
2016-02-27T00:17:11.870Z,0
2016-02-27T00:18:11.889Z,0
2016-02-27T00:19:11.876Z,0
2016-02-27T00:20:11.878Z,0
2016-02-27T00:21:11.865Z,0
2016-02-27T00:22:11.915Z,0
2016-02-27T00:23:11.870Z,0
2016-02-27T00:24:11.889Z,0
2016-02-27T00:25:11.891Z,0
2016-02-27T00:26:11.894Z,0
2016-02-27T00:27:11.866Z,0
2016-02-27T00:28:11.868Z,0
2016-02-27T00:29:11.871Z,0
2016-02-27T00:30:11.889Z,0
2016-02-27T00:31:11.844Z,0
2016-02-27T00:32:11.880Z,0
2016-02-27T00:33:11.850Z,0
2016-02-27T00:34:11.885Z,0
2016-02-27T00:35:11.856Z,0
2016-02-27T00:36:11.859Z,0
2016-02-27T00:37:11.846Z,0
2016-02-27T00:38:11.849Z,0
2016-02-27T00:39:11.913Z,0
2016-02-27T00:40:11.854Z,0
2016-02-27T00:41:11.888Z,0
2016-02-27T00:42:11.906Z,0
2016-02-27T00:43:11.877Z,0
2016-02-27T00:44:11.865Z,0
2016-02-27T00:45:11.851Z,0
2016-02-27T00:46:11.840Z,0
2016-02-27T00:47:11.842Z,0
2016-02-27T00:48:11.859Z,0
2016-02-27T00:49:11.832Z,0
2016-02-27T00:50:11.865Z,0
2016-02-27T00:51:11.836Z,0
2016-02-27T00:52:11.855Z,0
2016-02-27T00:53:11.842Z,0
2016-02-27T00:54:11.907Z,0
2016-02-27T00:55:11.831Z,0
2016-02-27T00:56:11.850Z,0
2016-02-27T00:57:11.837Z,0
2016-02-27T00:58:11.839Z,0
2016-02-27T00:59:11.827Z,0
2016-02-27T01:00:11.814Z,0
2016-02-27T01:01:11.847Z,0
2016-02-27T01:02:11.835Z,0
2016-02-27T01:03:11.822Z,0
2016-02-27T01:04:11.841Z,0
2016-02-27T01:05:11.827Z,0
2016-02-27T01:06:11.877Z,0
2016-02-27T01:07:11.817Z,0
2016-02-27T01:08:11.820Z,0
2016-02-27T01:09:11.838Z,0
2016-02-27T01:10:11.810Z,0
2016-02-27T01:11:11.828Z,0
2016-02-27T01:12:11.815Z,0
2016-02-27T01:13:11.833Z,0
2016-02-27T01:14:11.820Z,0
2016-02-27T01:15:11.807Z,0
2016-02-27T01:16:11.826Z,0
2016-02-27T01:17:11.813Z,0
2016-02-27T01:18:11.659Z,0
2016-02-27T01:19:11.817Z,0
2016-02-27T01:20:11.806Z,0
2016-02-27T01:21:11.809Z,0
2016-02-27T01:22:11.795Z,0
2016-02-27T01:23:11.798Z,0
2016-02-27T01:24:11.801Z,0
2016-02-27T01:25:11.787Z,0
2016-02-27T01:26:11.790Z,0
2016-02-27T01:27:11.792Z,0
2016-02-27T01:28:11.795Z,0
2016-02-27T01:29:11.782Z,0
2016-02-27T01:30:11.785Z,0
2016-02-27T01:31:11.804Z,0
2016-02-27T01:32:11.775Z,0
2016-02-27T01:33:11.777Z,0
2016-02-27T01:34:11.625Z,0
2016-02-27T01:35:11.783Z,0
2016-02-27T01:36:11.786Z,0
2016-02-27T01:37:11.866Z,0
2016-02-27T01:38:11.775Z,0
2016-02-27T01:39:11.810Z,0
2016-02-27T01:40:11.796Z,0
2016-02-27T01:41:11.783Z,0
2016-02-27T01:42:11.771Z,0
2016-02-27T01:43:11.773Z,0
2016-02-27T01:44:11.776Z,0
2016-02-27T01:45:11.779Z,0
2016-02-27T01:46:11.782Z,0
2016-02-27T01:47:11.768Z,0
2016-02-27T01:48:11.756Z,0
2016-02-27T01:49:11.759Z,0
2016-02-27T01:50:11.761Z,0
2016-02-27T01:51:11.779Z,0
2016-02-27T01:52:11.750Z,0
2016-02-27T01:53:11.753Z,0
2016-02-27T01:54:11.787Z,0
2016-02-27T01:55:11.758Z,0
2016-02-27T01:56:11.762Z,0
2016-02-27T01:57:11.764Z,0
2016-02-27T01:58:11.767Z,0
2016-02-27T01:59:11.754Z,0
2016-02-27T02:00:11.756Z,0
2016-02-27T02:01:11.744Z,0
2016-02-27T02:02:11.746Z,0
2016-02-27T02:03:11.764Z,0
2016-02-27T02:04:11.736Z,0
2016-02-27T02:05:11.739Z,0
2016-02-27T02:06:11.742Z,0
2016-02-27T02:07:11.744Z,0
2016-02-27T02:08:11.747Z,0
2016-02-27T02:09:11.733Z,0
2016-02-27T02:10:11.736Z,0
2016-02-27T02:11:11.739Z,0
2016-02-27T02:12:11.757Z,0
2016-02-27T02:13:11.744Z,0
2016-02-27T02:14:11.746Z,0
2016-02-27T02:15:11.735Z,0
2016-02-27T02:16:11.753Z,0
2016-02-27T02:17:11.755Z,0
2016-02-27T02:18:11.743Z,0
2016-02-27T02:19:11.729Z,0
2016-02-27T02:20:11.732Z,0
2016-02-27T02:21:11.734Z,0
2016-02-27T02:22:11.737Z,0
2016-02-27T02:23:11.726Z,0
2016-02-27T02:24:11.728Z,0
2016-02-27T02:25:11.715Z,0
2016-02-27T02:26:11.717Z,0
2016-02-27T02:27:11.720Z,0
2016-02-27T02:28:11.723Z,0
2016-02-27T02:29:11.725Z,0
2016-02-27T02:30:11.712Z,0
2016-02-27T02:31:11.715Z,0
2016-02-27T02:32:11.717Z,0
2016-02-27T02:33:11.705Z,0
2016-02-27T02:34:11.708Z,0
2016-02-27T02:35:11.695Z,0
2016-02-27T02:36:11.713Z,0
2016-02-27T02:37:11.700Z,0
2016-02-27T02:38:11.749Z,0
2016-02-27T02:39:11.705Z,0
2016-02-27T02:40:11.691Z,0
2016-02-27T02:41:11.710Z,0
2016-02-27T02:42:11.698Z,0
2016-02-27T02:43:11.700Z,0
2016-02-27T02:44:11.688Z,0
2016-02-27T02:45:11.705Z,0
2016-02-27T02:46:11.693Z,0
2016-02-27T02:47:11.554Z,0
2016-02-27T02:48:11.682Z,0
2016-02-27T02:49:11.685Z,0
2016-02-27T02:50:11.688Z,0
2016-02-27T02:51:11.676Z,0
2016-02-27T02:52:11.678Z,0
2016-02-27T02:53:11.696Z,0
2016-02-27T02:54:11.699Z,0
2016-02-27T02:55:11.686Z,0
2016-02-27T02:56:11.673Z,0
2016-02-27T02:57:11.675Z,0
2016-02-27T02:58:11.662Z,0
2016-02-27T02:59:11.665Z,0
2016-02-27T03:00:11.652Z,0
2016-02-27T03:01:11.656Z,0
2016-02-27T03:02:11.720Z,0
2016-02-27T03:03:11.676Z,0
2016-02-27T03:04:11.678Z,0
2016-02-27T03:05:11.666Z,0
2016-02-27T03:06:11.653Z,0
2016-02-27T03:07:11.671Z,0
2016-02-27T03:08:11.674Z,0
2016-02-27T03:09:11.802Z,0
2016-02-27T03:10:11.664Z,0
2016-02-27T03:11:11.650Z,0
2016-02-27T03:12:11.653Z,0
2016-02-27T03:13:11.656Z,0
2016-02-27T03:14:11.658Z,0
2016-02-27T03:15:11.661Z,0
2016-02-27T03:16:11.663Z,0
2016-02-27T03:17:11.542Z,0
2016-02-27T03:18:11.638Z,0
2016-02-27T03:19:11.704Z,0
2016-02-27T03:20:11.706Z,0
2016-02-27T03:21:11.662Z,0
2016-02-27T03:22:11.649Z,0
2016-02-27T03:23:11.636Z,0
2016-02-27T03:24:11.639Z,0
2016-02-27T03:25:11.642Z,0
2016-02-27T03:26:11.660Z,0
2016-02-27T03:27:11.662Z,0
2016-02-27T03:28:11.634Z,0
2016-02-27T03:29:11.621Z,0
2016-02-27T03:30:11.623Z,0
2016-02-27T03:31:11.626Z,0
2016-02-27T03:32:11.676Z,0
2016-02-27T03:33:11.616Z,0
2016-02-27T03:34:11.619Z,0
2016-02-27T03:35:11.605Z,0
2016-02-27T03:36:11.609Z,0
2016-02-27T03:37:11.611Z,0
2016-02-27T03:38:11.645Z,0
2016-02-27T03:39:11.617Z,0
2016-02-27T03:40:11.635Z,0
2016-02-27T03:41:11.622Z,0
2016-02-27T03:42:11.452Z,0
2016-02-27T03:43:11.611Z,0
2016-02-27T03:44:11.614Z,0
2016-02-27T03:45:11.602Z,0
2016-02-27T03:46:11.605Z,0
2016-02-27T03:47:11.622Z,0
2016-02-27T03:48:11.610Z,0
2016-02-27T03:49:11.613Z,0
2016-02-27T03:50:11.584Z,0
2016-02-27T03:51:11.570Z,0
2016-02-27T03:52:11.590Z,0
2016-02-27T03:53:11.592Z,0
2016-02-27T03:54:11.595Z,0
2016-02-27T03:55:11.613Z,0
2016-02-27T03:56:11.615Z,0
2016-02-27T03:57:11.603Z,0
2016-02-27T03:58:11.589Z,0
2016-02-27T03:59:11.592Z,0
2016-02-27T04:00:11.595Z,0
2016-02-27T04:01:11.598Z,0
2016-02-27T04:02:11.601Z,0
2016-02-27T04:03:11.572Z,0
2016-02-27T04:04:11.575Z,0
2016-02-27T04:05:11.561Z,0
2016-02-27T04:06:11.564Z,0
2016-02-27T04:07:11.566Z,0
2016-02-27T04:08:11.570Z,0
2016-02-27T04:09:11.573Z,0
2016-02-27T04:10:11.575Z,0
2016-02-27T04:11:11.594Z,0
2016-02-27T04:12:11.565Z,0
2016-02-27T04:13:11.567Z,0
2016-02-27T04:14:11.555Z,0
2016-02-27T04:15:11.557Z,0
2016-02-27T04:16:11.560Z,0
2016-02-27T04:17:11.577Z,0
2016-02-27T04:18:11.549Z,0
2016-02-27T04:19:11.553Z,0
2016-02-27T04:20:11.540Z,0
2016-02-27T04:21:11.543Z,0
2016-02-27T04:22:11.545Z,0
2016-02-27T04:23:11.548Z,0
2016-02-27T04:24:11.550Z,0
2016-02-27T04:25:11.538Z,0
2016-02-27T04:26:11.540Z,0
2016-02-27T04:27:11.527Z,0
2016-02-27T04:28:11.530Z,0
2016-02-27T04:29:11.532Z,0
2016-02-27T04:30:11.523Z,0
2016-02-27T04:31:11.498Z,0
2016-02-27T04:32:11.487Z,0
2016-02-27T04:33:11.477Z,0
2016-02-27T04:34:11.481Z,0
2016-02-27T04:35:11.464Z,0
2016-02-27T04:36:11.461Z,0
2016-02-27T04:37:11.459Z,0
2016-02-27T04:38:11.441Z,0
2016-02-27T04:39:11.422Z,0
2016-02-27T04:40:11.439Z,0
2016-02-27T04:41:11.424Z,0
2016-02-27T04:42:11.410Z,0
2016-02-27T04:43:11.412Z,0
2016-02-27T04:44:11.413Z,0
2016-02-27T04:45:11.415Z,0
2016-02-27T04:46:11.416Z,0
2016-02-27T04:47:11.402Z,0
2016-02-27T04:48:11.420Z,0
2016-02-27T04:49:11.422Z,0
2016-02-27T04:50:11.236Z,0
2016-02-27T04:51:11.396Z,0
2016-02-27T04:52:11.398Z,0
2016-02-27T04:53:11.401Z,0
2016-02-27T04:54:11.387Z,0
2016-02-27T04:55:11.389Z,0
2016-02-27T04:56:11.408Z,0
2016-02-27T04:57:11.379Z,0
2016-02-27T04:58:11.381Z,0
2016-02-27T04:59:11.244Z,0
2016-02-27T05:00:11.371Z,0
2016-02-27T05:01:11.374Z,0
2016-02-27T05:02:11.221Z,0
2016-02-27T05:03:11.380Z,0
2016-02-27T05:04:11.367Z,0
2016-02-27T05:05:11.432Z,0
2016-02-27T05:06:11.372Z,0
2016-02-27T05:07:11.358Z,0
2016-02-27T05:08:11.377Z,0
2016-02-27T05:09:11.208Z,0
2016-02-27T05:10:11.367Z,0
2016-02-27T05:11:11.386Z,0
2016-02-27T05:12:11.357Z,0
2016-02-27T05:13:11.375Z,0
2016-02-27T05:14:11.362Z,0
2016-02-27T05:15:11.365Z,0
2016-02-27T05:16:11.368Z,0
2016-02-27T05:17:11.370Z,0
2016-02-27T05:18:11.358Z,0
2016-02-27T05:19:11.376Z,0
2016-02-27T05:20:11.348Z,0
2016-02-27T05:21:11.334Z,0
2016-02-27T05:22:11.337Z,0
2016-02-27T05:23:11.339Z,0
2016-02-27T05:24:11.342Z,0
2016-02-27T05:25:11.376Z,0
2016-02-27T05:26:11.348Z,0
2016-02-27T05:27:11.367Z,0
2016-02-27T05:28:11.337Z,0
2016-02-27T05:29:11.325Z,0
2016-02-27T05:30:11.343Z,0
2016-02-27T05:31:11.330Z,0
2016-02-27T05:32:11.317Z,0
2016-02-27T05:33:11.319Z,0
2016-02-27T05:34:11.323Z,0
2016-02-27T05:35:11.325Z,0
2016-02-27T05:36:11.328Z,0
2016-02-27T05:37:11.330Z,0
2016-02-27T05:38:11.317Z,0
2016-02-27T05:39:11.319Z,0
2016-02-27T05:40:11.307Z,0
2016-02-27T05:41:11.310Z,0
2016-02-27T05:42:11.313Z,0
2016-02-27T05:43:11.316Z,0
2016-02-27T05:44:11.333Z,4
2016-02-27T05:45:11.305Z,4
2016-02-27T05:46:11.307Z,0
2016-02-27T05:47:11.310Z,4
2016-02-27T05:48:11.329Z,8
2016-02-27T05:49:11.175Z,4
2016-02-27T05:50:11.288Z,4
2016-02-27T05:51:11.290Z,8
2016-02-27T05:52:11.293Z,12
2016-02-27T05:53:11.295Z,12
2016-02-27T05:54:11.298Z,16
2016-02-27T05:55:11.285Z,16
2016-02-27T05:56:11.303Z,20
2016-02-27T05:57:11.306Z,24
2016-02-27T05:58:11.293Z,28
2016-02-27T05:59:11.296Z,32
2016-02-27T06:00:11.267Z,32
2016-02-27T06:01:11.270Z,40
2016-02-27T06:02:11.273Z,44
2016-02-27T06:03:11.322Z,52
2016-02-27T06:04:11.294Z,56
2016-02-27T06:05:11.328Z,60
2016-02-27T06:06:11.267Z,68
2016-02-27T06:07:11.286Z,76
2016-02-27T06:08:11.272Z,80
2016-02-27T06:09:11.276Z,88
2016-02-27T06:10:11.263Z,96
2016-02-27T06:11:11.250Z,108
2016-02-27T06:12:11.252Z,116
2016-02-27T06:13:11.271Z,132
2016-02-27T06:14:11.258Z,144
2016-02-27T06:15:11.291Z,156
2016-02-27T06:16:11.294Z,172
2016-02-27T06:17:11.251Z,184
2016-02-27T06:18:11.254Z,204
2016-02-27T06:19:11.256Z,216
2016-02-27T06:20:11.259Z,236
2016-02-27T06:21:11.262Z,260
2016-02-27T06:22:11.248Z,280
2016-02-27T06:23:11.235Z,304
2016-02-27T06:24:11.237Z,328
2016-02-27T06:25:11.226Z,356
2016-02-27T06:26:11.228Z,384
2016-02-27T06:27:11.246Z,416
2016-02-27T06:28:11.265Z,444
2016-02-27T06:29:11.236Z,472
2016-02-27T06:30:11.239Z,504
2016-02-27T06:31:11.241Z,536
2016-02-27T06:32:11.212Z,568
2016-02-27T06:33:11.215Z,604
2016-02-27T06:34:11.234Z,632
2016-02-27T06:35:11.220Z,664
2016-02-27T06:36:11.239Z,696
2016-02-27T06:37:11.226Z,732
2016-02-27T06:38:11.228Z,772
2016-02-27T06:39:11.263Z,804
2016-02-27T06:40:11.202Z,840
2016-02-27T06:41:11.237Z,876
2016-02-27T06:42:11.208Z,916
2016-02-27T06:43:11.195Z,960
2016-02-27T06:44:11.198Z,1000
2016-02-27T06:45:11.216Z,1040
2016-02-27T06:46:11.204Z,1080
2016-02-27T06:47:11.206Z,1124
2016-02-27T06:48:11.193Z,1164
2016-02-27T06:49:11.196Z,1204
2016-02-27T06:50:11.215Z,1244
2016-02-27T06:51:11.202Z,1292
2016-02-27T06:52:11.095Z,1332
2016-02-27T06:53:11.207Z,1380
2016-02-27T06:54:11.194Z,1420
2016-02-27T06:55:11.196Z,1468
2016-02-27T06:56:11.183Z,1516
2016-02-27T06:57:11.186Z,1564
2016-02-27T06:58:11.189Z,1612
2016-02-27T06:59:11.175Z,1656
2016-02-27T07:00:11.195Z,1704
2016-02-27T07:01:11.181Z,1752
2016-02-27T07:02:11.184Z,1796
2016-02-27T07:03:11.156Z,1844
2016-02-27T07:04:11.173Z,1892
2016-02-27T07:05:11.176Z,1936
2016-02-27T07:06:11.163Z,1980
2016-02-27T07:07:11.181Z,2024
2016-02-27T07:08:11.185Z,2068
2016-02-27T07:09:11.172Z,2116
2016-02-27T07:10:11.175Z,2164
2016-02-27T07:11:11.177Z,2212
2016-02-27T07:12:11.195Z,2264
2016-02-27T07:13:11.182Z,2316
2016-02-27T07:14:11.169Z,2368
2016-02-27T07:15:11.157Z,2420
2016-02-27T07:16:11.175Z,2472
2016-02-27T07:17:11.163Z,2532
2016-02-27T07:18:11.008Z,2588
2016-02-27T07:19:11.152Z,2648
2016-02-27T07:20:11.154Z,2704
2016-02-27T07:21:42.501Z,2788
2016-02-27T07:22:11.159Z,2816
2016-02-27T07:23:11.162Z,2868
2016-02-27T07:24:11.166Z,2920
2016-02-27T07:25:11.168Z,2964
2016-02-27T07:26:11.140Z,3012
2016-02-27T07:27:11.142Z,3048
2016-02-27T07:28:11.145Z,3088
2016-02-27T07:29:11.147Z,3132
2016-02-27T07:30:11.150Z,3168
2016-02-27T07:31:11.153Z,3204
2016-02-27T07:32:11.140Z,3240
2016-02-27T07:33:11.221Z,3280
2016-02-27T07:34:11.114Z,3320
2016-02-27T07:35:11.132Z,3364
2016-02-27T07:36:11.166Z,3412
2016-02-27T07:37:11.137Z,3460
2016-02-27T07:38:11.139Z,3516
2016-02-27T07:39:11.142Z,3568
2016-02-27T07:40:11.146Z,3620
2016-02-27T07:41:11.148Z,3680
2016-02-27T07:42:11.136Z,3752
2016-02-27T07:43:11.138Z,3816
2016-02-27T07:44:11.141Z,3880
2016-02-27T07:45:11.127Z,3944
2016-02-27T07:46:11.130Z,3988
2016-02-27T07:47:11.133Z,4048
2016-02-27T07:48:11.199Z,4104
2016-02-27T07:49:11.124Z,4184
2016-02-27T07:50:11.126Z,4244
2016-02-27T07:51:11.129Z,4316
2016-02-27T07:52:11.132Z,4368
2016-02-27T07:53:11.134Z,4404
2016-02-27T07:54:11.152Z,4444
2016-02-27T07:55:11.139Z,4480
2016-02-27T07:56:11.126Z,4476
2016-02-27T07:57:11.191Z,4512
2016-02-27T07:58:11.115Z,4588
2016-02-27T07:59:11.134Z,4640
2016-02-27T08:00:11.153Z,4652
2016-02-27T08:01:11.140Z,4672
2016-02-27T08:02:11.142Z,4692
2016-02-27T08:03:11.067Z,4756
2016-02-27T08:04:11.117Z,4816
2016-02-27T08:05:11.151Z,4876
2016-02-27T08:06:11.122Z,4912
2016-02-27T08:07:11.125Z,4916
2016-02-27T08:08:11.128Z,4920
2016-02-27T08:09:11.130Z,4936
2016-02-27T08:10:11.133Z,4944
2016-02-27T08:11:11.103Z,4984
2016-02-27T08:12:11.138Z,5008
2016-02-27T08:13:11.125Z,5036
2016-02-27T08:14:11.127Z,5068
2016-02-27T08:15:11.130Z,5104
2016-02-27T08:16:11.133Z,5120
2016-02-27T08:17:11.152Z,5164
2016-02-27T08:18:11.216Z,5204
2016-02-27T08:19:11.125Z,5236
2016-02-27T08:20:11.128Z,5308
2016-02-27T08:21:11.131Z,5352
2016-02-27T08:22:11.134Z,5368
2016-02-27T08:23:11.121Z,5368
2016-02-27T08:24:11.123Z,5408
2016-02-27T08:25:11.127Z,5452
2016-02-27T08:26:11.191Z,5492
2016-02-27T08:27:11.132Z,5528
2016-02-27T08:28:11.134Z,5544
2016-02-27T08:29:11.137Z,5564
2016-02-27T08:30:11.123Z,5592
2016-02-27T08:31:11.143Z,5636
2016-02-27T08:32:11.129Z,5668
2016-02-27T08:33:11.148Z,5684
2016-02-27T08:34:11.134Z,5708
2016-02-27T08:35:11.153Z,5704
2016-02-27T08:36:11.140Z,5792
2016-02-27T08:37:11.143Z,5844
2016-02-27T08:38:11.146Z,5884
2016-02-27T08:39:11.133Z,5916
2016-02-27T08:40:11.136Z,5928
2016-02-27T08:41:11.139Z,5904
2016-02-27T08:42:11.141Z,5868
2016-02-27T08:43:11.159Z,5840
2016-02-27T08:44:11.147Z,5836
2016-02-27T08:45:11.164Z,5856
2016-02-27T08:46:11.152Z,5848
2016-02-27T08:47:11.200Z,5856
2016-02-27T08:48:11.172Z,5836
2016-02-27T08:49:11.159Z,5808
2016-02-27T08:50:11.147Z,5796
2016-02-27T08:51:11.149Z,5800
2016-02-27T08:52:11.183Z,5800
2016-02-27T08:53:11.155Z,5804
2016-02-27T08:54:11.157Z,5788
2016-02-27T08:55:11.160Z,5768
2016-02-27T08:56:11.163Z,5760
2016-02-27T08:57:11.165Z,5736
2016-02-27T08:58:11.168Z,5656
2016-02-27T08:59:11.170Z,5612
2016-02-27T09:00:11.204Z,5576
2016-02-27T09:01:11.176Z,5528
2016-02-27T09:02:11.179Z,5500
2016-02-27T09:03:11.182Z,5488
2016-02-27T09:04:11.168Z,5484
2016-02-27T09:05:11.171Z,5448
2016-02-27T09:06:11.173Z,5444
2016-02-27T09:07:11.176Z,5456
2016-02-27T09:08:11.211Z,5448
2016-02-27T09:09:11.181Z,5444
2016-02-27T09:10:11.200Z,5440
2016-02-27T09:11:11.187Z,5464
2016-02-27T09:12:11.190Z,5460
2016-02-27T09:13:11.193Z,5436
2016-02-27T09:14:11.180Z,5432
2016-02-27T09:15:11.183Z,5424
2016-02-27T09:16:11.186Z,5448
2016-02-27T09:17:11.188Z,5404
2016-02-27T09:18:11.191Z,5364
2016-02-27T09:19:11.193Z,5368
2016-02-27T09:20:11.196Z,5340
2016-02-27T09:21:11.199Z,5308
2016-02-27T09:22:11.201Z,5268
2016-02-27T09:23:11.204Z,5252
2016-02-27T09:24:11.207Z,5204
2016-02-27T09:25:11.209Z,5208
2016-02-27T09:26:11.213Z,5208
2016-02-27T09:27:11.215Z,5172
2016-02-27T09:28:11.217Z,5156
2016-02-27T09:29:11.221Z,5176
2016-02-27T09:30:11.238Z,5196
2016-02-27T09:31:11.210Z,5220
2016-02-27T09:32:11.212Z,5216
2016-02-27T09:33:11.231Z,5200
2016-02-27T09:34:11.233Z,5204
2016-02-27T09:35:11.236Z,5188
2016-02-27T09:36:11.223Z,5164
2016-02-27T09:37:11.226Z,5156
2016-02-27T09:38:11.229Z,5144
2016-02-27T09:39:11.231Z,5148
2016-02-27T09:40:11.234Z,5140
2016-02-27T09:41:11.237Z,5084
2016-02-27T09:42:11.239Z,4984
2016-02-27T09:43:11.242Z,4884
2016-02-27T09:44:11.261Z,4808
2016-02-27T09:45:11.264Z,4780
2016-02-27T09:46:11.266Z,4756
2016-02-27T09:47:11.269Z,4732
2016-02-27T09:48:11.255Z,4700
2016-02-27T09:49:11.242Z,4760
2016-02-27T09:50:11.245Z,4776
2016-02-27T09:51:11.247Z,4824
2016-02-27T09:52:11.250Z,4824
2016-02-27T09:53:11.252Z,4848
2016-02-27T09:54:11.256Z,4884
2016-02-27T09:55:11.322Z,4876
2016-02-27T09:56:11.277Z,4844
2016-02-27T09:57:11.296Z,4840
2016-02-27T09:58:11.267Z,4828
2016-02-27T09:59:11.269Z,4804
2016-02-27T10:00:11.304Z,4784
2016-02-27T10:01:11.259Z,4824
2016-02-27T10:02:11.262Z,4800
2016-02-27T10:03:11.265Z,4760
2016-02-27T10:04:11.267Z,4720
2016-02-27T10:05:10.974Z,4656
2016-02-27T10:06:11.273Z,4576
2016-02-27T10:07:11.275Z,4504
2016-02-27T10:08:11.279Z,4504
2016-02-27T10:09:11.281Z,4464
2016-02-27T10:10:11.284Z,4404
2016-02-27T10:11:11.317Z,4388
2016-02-27T10:12:11.304Z,4408
2016-02-27T10:13:11.292Z,4444
2016-02-27T10:14:11.294Z,4448
2016-02-27T10:15:11.297Z,4448
2016-02-27T10:16:11.362Z,4448
2016-02-27T10:17:11.303Z,4440
2016-02-27T10:18:11.305Z,4392
2016-02-27T10:19:11.292Z,4356
2016-02-27T10:20:11.326Z,4328
2016-02-27T10:21:11.297Z,4312
2016-02-27T10:22:11.316Z,4296
2016-02-27T10:23:11.302Z,4256
2016-02-27T10:24:11.305Z,4216
2016-02-27T10:25:11.308Z,4184
2016-02-27T10:26:11.311Z,4116
2016-02-27T10:27:11.313Z,4028
2016-02-27T10:28:11.316Z,3980
2016-02-27T10:29:11.319Z,3948
2016-02-27T10:30:11.181Z,3856
2016-02-27T10:31:11.324Z,3788
2016-02-27T10:32:11.327Z,3704
2016-02-27T10:33:11.329Z,3636
2016-02-27T10:34:11.348Z,3636
2016-02-27T10:35:11.351Z,3632
2016-02-27T10:36:11.337Z,3620
2016-02-27T10:37:11.325Z,3592
2016-02-27T10:38:11.390Z,3568
2016-02-27T10:39:11.345Z,3556
2016-02-27T10:40:11.333Z,3544
2016-02-27T10:41:11.351Z,3508
2016-02-27T10:42:11.339Z,3480
2016-02-27T10:43:11.341Z,3444
2016-02-27T10:44:11.344Z,3404
2016-02-27T10:45:11.347Z,3344
2016-02-27T10:46:11.349Z,3256
2016-02-27T10:47:11.352Z,3244
2016-02-27T10:48:11.355Z,3272
2016-02-27T10:49:11.342Z,3268
2016-02-27T10:50:11.360Z,3272
2016-02-27T10:51:11.347Z,3328
2016-02-27T10:52:11.365Z,3360
2016-02-27T10:53:11.399Z,3384
2016-02-27T10:54:11.371Z,3388
2016-02-27T10:55:11.358Z,3380
2016-02-27T10:56:11.361Z,3344
2016-02-27T10:57:11.363Z,3268
2016-02-27T10:58:11.366Z,3220
2016-02-27T10:59:11.385Z,3188
2016-02-27T11:00:11.371Z,3180
2016-02-27T11:01:11.374Z,3176
2016-02-27T11:02:11.376Z,3180
2016-02-27T11:03:11.379Z,3140
2016-02-27T11:04:11.382Z,3120
2016-02-27T11:05:11.400Z,3040
2016-02-27T11:06:11.387Z,3040
2016-02-27T11:07:11.406Z,3052
2016-02-27T11:08:11.393Z,3036
2016-02-27T11:09:11.442Z,3016
2016-02-27T11:10:11.382Z,3004
2016-02-27T11:11:11.416Z,3016
2016-02-27T11:12:11.387Z,3032
2016-02-27T11:13:11.406Z,3048
2016-02-27T11:14:11.378Z,3052
2016-02-27T11:15:11.411Z,3096
2016-02-27T11:16:11.398Z,3120
2016-02-27T11:17:11.401Z,3136
2016-02-27T11:18:11.403Z,3136
2016-02-27T11:19:11.406Z,3140
2016-02-27T11:20:11.394Z,3144
2016-02-27T11:21:11.397Z,3192
2016-02-27T11:22:11.400Z,3196
2016-02-27T11:23:11.417Z,3220
2016-02-27T11:24:11.405Z,3268
2016-02-27T11:25:11.408Z,3312
2016-02-27T11:26:11.457Z,3328
2016-02-27T11:27:11.413Z,3344
2016-02-27T11:28:11.446Z,3356
2016-02-27T11:29:11.419Z,3344
2016-02-27T11:30:11.436Z,3324
2016-02-27T11:31:11.424Z,3320
2016-02-27T11:32:11.458Z,3284
2016-02-27T11:33:11.428Z,3252
2016-02-27T11:34:11.431Z,3220
2016-02-27T11:35:11.496Z,3204
2016-02-27T11:36:11.296Z,3180
2016-02-27T11:37:11.455Z,3140
2016-02-27T11:38:11.474Z,3120
2016-02-27T11:39:11.429Z,3080
2016-02-27T11:40:11.463Z,3052
2016-02-27T11:41:11.434Z,3012
2016-02-27T11:42:11.468Z,2992
2016-02-27T11:43:11.440Z,2968
2016-02-27T11:44:11.458Z,2948
2016-02-27T11:45:11.555Z,2916
2016-02-27T11:46:11.464Z,2892
2016-02-27T11:47:11.451Z,2872
2016-02-27T11:48:11.453Z,2852
2016-02-27T11:49:11.472Z,2812
2016-02-27T11:50:11.474Z,2776
2016-02-27T11:51:11.492Z,2744
2016-02-27T11:52:11.511Z,2736
2016-02-27T11:53:11.467Z,2708
2016-02-27T11:54:11.439Z,2732
2016-02-27T11:55:11.488Z,2740
2016-02-27T11:56:11.459Z,2744
2016-02-27T11:57:11.477Z,2748
2016-02-27T11:58:11.464Z,2748
2016-02-27T11:59:11.483Z,2748
2016-02-27T12:00:11.469Z,2748
2016-02-27T12:01:11.473Z,2748
2016-02-27T12:02:11.475Z,2740
2016-02-27T12:03:11.463Z,2736
2016-02-27T12:04:11.496Z,2720
2016-02-27T12:05:11.483Z,2708
2016-02-27T12:06:11.486Z,2692
2016-02-27T12:07:11.473Z,2668
2016-02-27T12:08:11.491Z,2648
2016-02-27T12:09:11.494Z,2632
2016-02-27T12:10:11.482Z,2616
2016-02-27T12:11:11.484Z,2592
2016-02-27T12:12:11.487Z,2572
2016-02-27T12:13:11.489Z,2552
2016-02-27T12:14:11.507Z,2524
2016-02-27T12:15:11.495Z,2496
2016-02-27T12:16:11.481Z,2472
2016-02-27T12:17:11.485Z,2436
2016-02-27T12:18:11.503Z,2412
2016-02-27T12:19:11.506Z,2384
2016-02-27T12:20:11.508Z,2364
2016-02-27T12:21:11.511Z,2340
2016-02-27T12:22:11.498Z,2320
2016-02-27T12:23:11.517Z,2300
2016-02-27T12:24:11.503Z,2284
2016-02-27T12:25:11.522Z,2268
2016-02-27T12:26:11.509Z,2248
2016-02-27T12:27:11.511Z,2232
2016-02-27T12:28:11.499Z,2228
2016-02-27T12:29:11.502Z,2216
2016-02-27T12:30:11.504Z,2204
2016-02-27T12:31:11.522Z,2196
2016-02-27T12:32:11.510Z,2184
2016-02-27T12:33:11.513Z,2180
2016-02-27T12:34:11.358Z,2176
2016-02-27T12:35:11.518Z,2168
2016-02-27T12:36:11.536Z,2156
2016-02-27T12:37:11.523Z,2144
2016-02-27T12:38:11.526Z,2128
2016-02-27T12:39:11.529Z,2120
2016-02-27T12:40:11.531Z,2112
2016-02-27T12:41:11.534Z,2108
2016-02-27T12:42:11.537Z,2092
2016-02-27T12:43:11.539Z,2080
2016-02-27T12:44:11.557Z,2076
2016-02-27T12:45:11.545Z,2068
2016-02-27T12:46:11.531Z,2064
2016-02-27T12:47:11.518Z,2056
2016-02-27T12:48:11.537Z,2036
2016-02-27T12:49:11.586Z,2032
2016-02-27T12:50:11.542Z,2020
2016-02-27T12:51:11.545Z,2008
2016-02-27T12:52:11.548Z,1996
2016-02-27T12:53:11.566Z,1988
2016-02-27T12:54:11.553Z,1980
2016-02-27T12:55:11.571Z,1968
2016-02-27T12:56:11.542Z,1960
2016-02-27T12:57:11.561Z,1952
2016-02-27T12:58:11.548Z,1956
2016-02-27T12:59:11.566Z,1948
2016-02-27T13:00:11.553Z,1948
2016-02-27T13:01:11.572Z,1944
2016-02-27T13:02:11.574Z,1928
2016-02-27T13:03:11.561Z,1924
2016-02-27T13:04:11.595Z,1912
2016-02-27T13:05:11.567Z,1904
2016-02-27T13:06:11.585Z,1920
2016-02-27T13:07:11.557Z,1912
2016-02-27T13:08:11.560Z,1908
2016-02-27T13:09:11.562Z,1888
2016-02-27T13:10:11.565Z,1880
2016-02-27T13:11:11.567Z,1880
2016-02-27T13:12:11.585Z,1868
2016-02-27T13:13:11.620Z,1864
2016-02-27T13:14:11.576Z,1860
2016-02-27T13:15:11.563Z,1864
2016-02-27T13:16:11.581Z,1868
2016-02-27T13:17:11.567Z,1860
2016-02-27T13:18:11.617Z,1860
2016-02-27T13:19:11.651Z,1852
2016-02-27T13:20:11.592Z,1852
2016-02-27T13:21:11.435Z,1848
2016-02-27T13:22:11.581Z,1840
2016-02-27T13:23:11.584Z,1832
2016-02-27T13:24:11.568Z,1832
2016-02-27T13:25:11.571Z,1824
2016-02-27T13:26:11.573Z,1820
2016-02-27T13:27:11.592Z,1820
2016-02-27T13:28:11.595Z,1816
2016-02-27T13:29:11.598Z,1812
2016-02-27T13:30:11.600Z,1800
2016-02-27T13:31:11.587Z,1792
2016-02-27T13:32:11.605Z,1788
2016-02-27T13:33:11.608Z,1784
2016-02-27T13:34:11.641Z,1784
2016-02-27T13:35:11.597Z,1776
2016-02-27T13:36:11.583Z,1768
2016-02-27T13:37:11.619Z,1752
2016-02-27T13:38:11.575Z,1752
2016-02-27T13:39:11.611Z,1748
2016-02-27T13:40:11.553Z,1748
2016-02-27T13:41:11.529Z,1744
2016-02-27T13:42:11.541Z,1740
2016-02-27T13:43:11.524Z,1716
2016-02-27T13:44:11.522Z,1720
2016-02-27T13:45:11.519Z,1668
2016-02-27T13:46:11.517Z,1680
2016-02-27T13:47:11.518Z,1688
2016-02-27T13:48:11.520Z,1688
2016-02-27T13:49:11.535Z,1708
2016-02-27T13:50:11.521Z,1704
2016-02-27T13:51:11.553Z,1696
2016-02-27T13:52:11.508Z,1660
2016-02-27T13:53:11.509Z,1612
2016-02-27T13:54:11.527Z,1628
2016-02-27T13:55:11.513Z,1588
2016-02-27T13:56:11.516Z,1628